Palmer Park, Maryland
Current Conditions -  °F | °C
As of 10:55 PM on Friday 24 Oct 2014 (Local Time) from KCGS Reporting Station
Clear Clear  
Wind Chill: 55°   Ceiling: Unl
Heat Index: 55°   Visibility: 10mi
Dew Point: 37°   Wind: 3mph
Humidity: 51%   Direction: 310°NW
Pressure: 29.94"   Gusts: NA
Location:  38.9183°N, 76.8721°W
Report Text: KCGS 250255Z AUTO 31003KT 10SM CLR 13/03 A2994 RMK AO1
Loading
Personal Weather Stations






























Interactive Weather Map New forecast layout! Learn more

10-Day Weather Forecast

Advertisements
Track Severe Weather on mobile